Time;durP1;ratioP1;P1;durP2;ratioP2;P2;SDS_P1;SDS_P2;PMS_P1;PMS_P2;Temp;Humidity;BMP_temperature;BMP_pressure;BME280_temperature;BME280_humidity;BME280_pressure;Samples;Min_cycle;Max_cycle;Signal;HPM_P1;HPM_P2
2022/07/29 00:06:44;;;;;;;4.33;3.40;;;;;;;25.14;61.22;99509.22;5071753;28;20191;-68
2022/07/29 00:09:10;;;;;;;4.87;3.47;;;;;;;24.95;61.77;99520.03;5074099;28;20709;-68
2022/07/29 00:12:14;;;;;;;3.87;3.63;;;;;;;24.96;61.79;99508.06;5072748;28;20568;-68
2022/07/29 00:14:56;;;;;;;5.73;3.50;;;;;;;24.81;62.31;99518.28;5074725;28;20216;-68
2022/07/29 00:17:41;;;;;;;4.23;4.03;;;;;;;24.65;62.91;99517.66;5072726;28;20223;-67
2022/07/29 00:20:26;;;;;;;4.83;4.10;;;;;;;24.71;62.67;99511.06;5073855;28;20201;-67
2022/07/29 00:22:54;;;;;;;5.57;4.90;;;;;;;24.57;63.22;99515.53;5070940;28;20205;-71
2022/07/29 00:25:36;;;;;;;4.70;3.77;;;;;;;24.63;63.27;99514.38;5073756;28;20192;-70
2022/07/29 00:28:24;;;;;;;4.33;4.00;;;;;;;24.72;62.89;99515.41;5073134;28;20203;-66
2022/07/29 00:38:08;;;;;;;4.57;4.17;;;;;;;24.64;63.61;99516.03;5071280;28;20302;-67
2022/07/29 01:08:13;;;;;;;5.20;4.90;;;;;;;24.59;65.12;99518.75;5073032;28;20555;-67
2022/07/29 01:10:41;;;;;;;6.53;4.77;;;;;;;24.77;64.65;99509.91;5073402;28;20187;-67
2022/07/29 01:13:10;;;;;;;7.30;4.43;;;;;;;24.82;64.17;99509.03;5072188;28;20199;-67
2022/07/29 01:15:44;;;;;;;4.93;4.63;;;;;;;24.85;64.39;99517.44;5073009;28;20629;-67
2022/07/29 01:18:17;;;;;;;5.20;4.80;;;;;;;24.93;64.60;99519.53;5072119;28;20293;-68
2022/07/29 01:21:07;;;;;;;5.10;4.57;;;;;;;25.10;64.22;99523.69;5073136;28;20188;-67
2022/07/29 01:23:49;;;;;;;4.63;4.27;;;;;;;25.31;63.42;99520.47;5071543;28;20192;-68
2022/07/29 01:26:34;;;;;;;4.80;4.27;;;;;;;25.49;62.67;99532.47;5072025;28;20222;-67
2022/07/29 01:29:07;;;;;;;5.37;4.97;;;;;;;25.62;63.13;99531.75;5070631;28;20196;-67
2022/07/29 01:31:43;;;;;;;7.13;4.50;;;;;;;25.74;62.19;99521.25;5072361;28;20180;-67
2022/07/29 01:34:14;;;;;;;5.90;5.40;;;;;;;25.80;61.43;99528.25;5072602;28;20190;-67
2022/07/29 01:36:46;;;;;;;5.20;4.40;;;;;;;25.73;61.56;99522.34;5071219;28;20187;-68
2022/07/29 01:39:18;;;;;;;5.50;5.20;;;;;;;25.62;61.23;99516.25;5071597;28;20215;-67
2022/07/29 01:41:51;;;;;;;5.33;5.00;;;;;;;25.59;61.60;99526.91;5071706;28;20238;-67
2022/07/29 01:44:23;;;;;;;4.67;4.37;;;;;;;25.64;61.26;99508.59;5071594;28;20188;-66
2022/07/29 01:46:55;;;;;;;5.03;4.63;;;;;;;25.64;61.72;99518.69;5071022;28;20192;-67
2022/07/29 01:49:26;;;;;;;7.80;5.03;;;;;;;25.69;61.62;99511.25;5071988;28;20188;-68
2022/07/29 01:51:57;;;;;;;5.13;4.77;;;;;;;25.74;61.48;99518.53;5071495;28;20242;-68
2022/07/29 01:54:31;;;;;;;5.10;4.63;;;;;;;25.81;61.40;99514.34;5072177;28;20238;-68
2022/07/29 01:57:00;;;;;;;6.53;4.60;;;;;;;25.85;61.75;99514.56;5033182;28;1110470;-67
2022/07/29 01:59:30;;;;;;;5.93;5.40;;;;;;;25.83;61.08;99495.81;5072247;28;20635;-68
2022/07/29 02:02:00;;;;;;;5.10;4.63;;;;;;;26.05;60.53;99514.28;5072773;28;20581;-67
2022/07/29 02:04:30;;;;;;;5.40;4.73;;;;;;;26.09;60.11;99516.09;5071771;28;20588;-68
2022/07/29 02:07:01;;;;;;;5.43;4.80;;;;;;;25.77;60.45;99517.94;5072432;28;20644;-68
2022/07/29 02:09:29;;;;;;;5.83;5.30;;;;;;;25.51;61.41;99520.19;5072621;28;20188;-68
2022/07/29 02:11:57;;;;;;;5.13;4.60;;;;;;;25.38;62.42;99515.47;5071012;28;20199;-68
2022/07/29 02:14:25;;;;;;;6.07;4.83;;;;;;;25.30;62.28;99518.03;5072276;28;20192;-67
2022/07/29 02:16:56;;;;;;;4.83;4.53;;;;;;;25.28;62.12;99512.09;5071464;28;20188;-67
2022/07/29 02:19:26;;;;;;;5.70;5.23;;;;;;;25.06;61.76;99507.13;5070801;28;20215;-67
2022/07/29 02:21:55;;;;;;;4.43;4.23;;;;;;;24.97;62.79;99508.88;5072629;28;20192;-67
2022/07/29 02:24:24;;;;;;;5.47;4.93;;;;;;;24.95;62.13;99501.00;5071617;28;20191;-67
2022/07/29 02:26:52;;;;;;;6.23;5.20;;;;;;;24.83;62.41;99508.75;5071127;28;20190;-68
2022/07/29 02:29:22;;;;;;;5.57;5.00;;;;;;;24.66;62.87;99494.81;5071860;28;20622;-67
2022/07/29 02:31:50;;;;;;;5.90;5.40;;;;;;;24.65;62.72;99501.34;5071962;28;20275;-67
2022/07/29 02:34:20;;;;;;;6.97;5.80;;;;;;;24.50;63.66;99504.16;5072117;28;20617;-68
2022/07/29 02:36:48;;;;;;;7.87;5.50;;;;;;;24.24;65.00;99500.06;5072575;28;20678;-67
2022/07/29 02:39:16;;;;;;;6.13;5.63;;;;;;;24.15;65.31;99490.94;5072564;28;20284;-68
2022/07/29 02:41:47;;;;;;;7.93;5.97;;;;;;;24.33;64.99;99503.78;5072601;28;20195;-67
2022/07/29 02:44:16;;;;;;;6.17;5.70;;;;;;;24.42;64.12;99495.84;5071972;28;20248;-67
2022/07/29 02:46:48;;;;;;;7.63;5.07;;;;;;;24.31;64.20;99500.56;5071896;28;20286;-68
2022/07/29 02:49:22;;;;;;;6.20;5.80;;;;;;;24.20;64.54;99504.44;5072985;28;20240;-70
2022/07/29 02:51:54;;;;;;;6.17;5.60;;;;;;;24.06;65.21;99492.59;5071479;28;20710;-67
2022/07/29 02:54:27;;;;;;;6.50;5.90;;;;;;;24.02;65.61;99496.19;5071137;28;20538;-67
2022/07/29 02:56:55;;;;;;;6.33;5.93;;;;;;;24.10;65.78;99493.66;5071667;28;20693;-67
2022/07/29 02:59:26;;;;;;;6.57;5.97;;;;;;;24.16;65.32;99503.41;5070421;28;20650;-68
2022/07/29 03:01:56;;;;;;;5.93;5.50;;;;;;;24.14;65.20;99500.13;5071858;28;20229;-67
2022/07/29 03:04:28;;;;;;;6.67;5.40;;;;;;;24.20;65.83;99498.19;5071297;28;20199;-68
2022/07/29 03:06:56;;;;;;;5.20;4.90;;;;;;;24.37;65.29;99498.59;5071385;28;20195;-69
2022/07/29 03:09:24;;;;;;;5.50;5.00;;;;;;;24.54;65.00;99499.78;5070860;28;20744;-68
2022/07/29 03:11:51;;;;;;;6.27;5.17;;;;;;;24.72;64.14;99501.81;5071254;28;20194;-67
2022/07/29 03:14:19;;;;;;;5.80;5.50;;;;;;;24.94;63.22;99509.44;5070531;28;20190;-68
2022/07/29 03:16:46;;;;;;;8.20;5.87;;;;;;;25.08;62.82;99506.84;5070722;28;20282;-68
2022/07/29 03:19:14;;;;;;;6.43;4.73;;;;;;;25.24;62.40;99513.72;5070586;28;20219;-68
2022/07/29 03:21:42;;;;;;;5.03;4.77;;;;;;;25.32;61.77;99515.84;5071591;28;20340;-68
2022/07/29 03:24:10;;;;;;;5.17;4.77;;;;;;;25.44;61.34;99518.94;5070913;28;20253;-67
2022/07/29 03:26:37;;;;;;;6.40;5.20;;;;;;;25.55;61.22;99517.72;5071581;28;20195;-68
2022/07/29 03:29:03;;;;;;;5.40;4.87;;;;;;;25.60;60.50;99517.66;5070600;28;20200;-68
2022/07/29 03:31:30;;;;;;;5.63;5.20;;;;;;;25.70;60.29;99518.31;5071249;28;20199;-71
2022/07/29 03:33:57;;;;;;;5.83;5.43;;;;;;;25.80;59.89;99522.81;5071071;28;20198;-70
2022/07/29 03:36:24;;;;;;;5.27;4.90;;;;;;;25.94;60.03;99523.72;5069528;28;20285;-68
2022/07/29 03:38:54;;;;;;;6.87;5.53;;;;;;;26.05;59.00;99536.06;5070380;28;20677;-68
2022/07/29 03:41:23;;;;;;;8.00;5.93;;;;;;;26.08;59.29;99535.47;5069715;28;20202;-69
2022/07/29 03:43:52;;;;;;;6.83;4.60;;;;;;;26.13;57.54;99532.69;5070441;28;20734;-68
2022/07/29 03:46:23;;;;;;;5.60;4.60;;;;;;;26.06;58.34;99532.22;5071272;28;20655;-68
2022/07/29 03:48:53;;;;;;;6.70;4.80;;;;;;;26.07;58.00;99533.84;5071251;28;20262;-66
2022/07/29 03:51:20;;;;;;;7.37;4.70;;;;;;;26.01;57.92;99540.50;5071777;28;20649;-66
2022/07/29 03:53:47;;;;;;;4.83;4.63;;;;;;;25.89;58.16;99542.81;5071283;28;20199;-67
2022/07/29 03:56:17;;;;;;;7.97;4.63;;;;;;;25.81;58.01;99533.41;5071051;28;20680;-67
2022/07/29 03:58:45;;;;;;;5.17;4.77;;;;;;;25.82;59.29;99536.91;5071806;28;20684;-66
2022/07/29 04:01:13;;;;;;;6.43;5.20;;;;;;;25.96;58.18;99543.28;5071213;28;20192;-66
2022/07/29 04:03:40;;;;;;;4.97;4.67;;;;;;;26.12;57.96;99541.94;5071063;28;20683;-67
2022/07/29 04:06:08;;;;;;;5.03;4.43;;;;;;;26.36;57.32;99543.47;5072166;28;20242;-66
2022/07/29 04:08:35;;;;;;;6.80;5.43;;;;;;;26.94;55.36;99547.34;5070466;28;20195;-67
2022/07/29 04:11:02;;;;;;;5.20;4.77;;;;;;;27.64;53.33;99553.34;5071086;28;20192;-68
2022/07/29 04:13:31;;;;;;;6.40;5.07;;;;;;;28.21;51.29;99561.59;5071477;28;20192;-67
2022/07/29 04:15:58;;;;;;;5.97;5.47;;;;;;;28.72;50.02;99556.53;5070365;28;20222;-67
2022/07/29 04:18:25;;;;;;;5.60;5.10;;;;;;;29.11;48.40;99562.06;5070127;28;20764;-66
2022/07/29 04:20:51;;;;;;;7.50;6.63;;;;;;;29.51;47.20;99562.84;5069911;28;20667;-66
2022/07/29 04:23:18;;;;;;;6.53;5.67;;;;;;;29.98;46.00;99575.72;5071022;28;20196;-70
2022/07/29 04:25:45;;;;;;;6.07;5.47;;;;;;;30.38;44.50;99568.94;5069203;28;20607;-67
2022/07/29 04:28:11;;;;;;;7.67;6.97;;;;;;;30.73;44.13;99565.06;5070100;28;20188;-67
2022/07/29 04:30:40;;;;;;;14.30;8.23;;;;;;;31.16;42.42;99571.25;5070931;28;20616;-67
2022/07/29 04:33:07;;;;;;;10.77;9.00;;;;;;;31.51;41.49;99569.16;5069573;28;20737;-66
2022/07/29 04:35:37;;;;;;;10.93;9.83;;;;;;;31.70;40.61;99573.09;5070234;28;20253;-68
2022/07/29 04:38:03;;;;;;;17.80;15.10;;;;;;;32.09;39.30;99567.16;5070513;28;20196;-66
2022/07/29 04:40:32;;;;;;;16.67;14.40;;;;;;;32.24;39.23;99566.56;5070520;28;20250;-67
2022/07/29 04:42:59;;;;;;;14.63;13.30;;;;;;;32.27;38.92;99576.91;5073864;28;20219;-67
2022/07/29 04:45:26;;;;;;;13.83;12.37;;;;;;;32.45;38.65;99572.88;5074076;28;20192;-67
2022/07/29 04:47:54;;;;;;;9.93;9.13;;;;;;;32.82;36.97;99582.91;5073294;28;20192;-67
2022/07/29 04:50:21;;;;;;;8.83;8.03;;;;;;;32.89;37.23;99583.16;5074287;28;20268;-68
2022/07/29 04:52:48;;;;;;;8.73;7.97;;;;;;;33.11;36.90;99588.22;5074299;28;20637;-67
2022/07/29 04:55:15;;;;;;;7.30;6.90;;;;;;;33.33;36.32;99586.22;5074209;28;20249;-68
2022/07/29 04:57:42;;;;;;;7.33;6.63;;;;;;;33.57;36.25;99597.25;5074305;28;20239;-68
2022/07/29 05:00:10;;;;;;;8.50;7.03;;;;;;;33.80;35.69;99596.41;5074150;28;20220;-67
2022/07/29 05:02:36;;;;;;;13.23;7.80;;;;;;;33.96;35.30;99593.81;5073436;28;20188;-68
2022/07/29 05:05:05;;;;;;;11.47;8.17;;;;;;;34.06;35.32;99587.81;5074491;28;20638;-68
2022/07/29 05:07:32;;;;;;;8.87;7.57;;;;;;;34.18;34.89;99585.81;5073794;28;20196;-67
2022/07/29 05:09:59;;;;;;;8.75;7.93;;;;;;;34.46;35.19;99596.91;5073643;28;20664;-66
2022/07/29 05:12:26;;;;;;;10.38;7.07;;;;;;;34.54;34.94;99598.72;5073302;28;20215;-68
2022/07/29 05:14:53;;;;;;;6.32;5.82;;;;;;;34.74;34.18;99592.19;5072638;28;20634;-68
2022/07/29 05:17:20;;;;;;;8.88;7.45;;;;;;;35.04;34.18;99590.66;5073159;28;20196;-68
2022/07/29 05:19:46;;;;;;;7.13;6.63;;;;;;;35.18;33.90;99591.00;5073517;28;20581;-68
2022/07/29 05:22:14;;;;;;;7.22;6.38;;;;;;;35.30;33.51;99597.28;5071807;28;20192;-70
2022/07/29 05:24:41;;;;;;;11.38;6.10;;;;;;;35.63;32.55;99591.38;5072717;28;20249;-70
2022/07/29 05:27:09;;;;;;;6.10;5.50;;;;;;;36.25;31.90;99599.59;5073157;28;20279;-68
2022/07/29 05:29:36;;;;;;;6.50;5.70;;;;;;;35.98;32.29;99595.00;5073191;28;20184;-67
2022/07/29 05:32:03;;;;;;;7.25;5.25;;;;;;;36.06;31.68;99605.06;5065823;28;20201;-67
2022/07/29 05:34:30;;;;;;;34.65;6.90;;;;;;;35.89;31.96;99594.41;5072895;28;20199;-67
2022/07/29 05:36:57;;;;;;;5.43;5.03;;;;;;;35.67;32.37;99597.78;5072787;28;20199;-67
2022/07/29 05:39:25;;;;;;;7.95;5.20;;;;;;;35.73;32.58;99599.13;5072764;28;20224;-66
2022/07/29 05:41:52;;;;;;;6.05;5.15;;;;;;;35.99;31.92;99604.88;5072048;28;20728;-67
2022/07/29 05:44:18;;;;;;;9.88;4.75;;;;;;;36.22;31.38;99603.06;5071631;28;20253;-66
2022/07/29 05:46:45;;;;;;;6.35;5.00;;;;;;;36.10;31.87;99600.41;5072518;28;20196;-66
2022/07/29 05:49:12;;;;;;;6.78;4.82;;;;;;;36.41;31.20;99608.59;5071036;28;20676;-68
2022/07/29 05:51:39;;;;;;;5.45;4.95;;;;;;;36.64;31.29;99606.72;5072915;28;20222;-68
2022/07/29 05:54:05;;;;;;;5.55;5.13;;;;;;;36.68;30.74;99613.16;5070138;28;20199;-67
2022/07/29 05:56:34;;;;;;;5.60;5.20;;;;;;;36.52;31.07;99615.16;5071600;28;20208;-70
2022/07/29 05:59:00;;;;;;;5.70;5.22;;;;;;;36.72;30.30;99612.06;5072761;28;20319;-68
2022/07/29 06:01:27;;;;;;;5.53;5.13;;;;;;;36.51;31.47;99619.09;5073051;28;20192;-65
2022/07/29 06:03:54;;;;;;;6.47;5.38;;;;;;;36.41;31.14;99611.38;5072729;28;20660;-66
2022/07/29 06:06:21;;;;;;;10.57;5.70;;;;;;;36.13;32.25;99608.00;5072925;28;20192;-66
2022/07/29 06:08:47;;;;;;;6.57;5.07;;;;;;;36.32;31.48;99608.03;5072105;28;20195;-68
2022/07/29 06:11:14;;;;;;;6.57;6.05;;;;;;;36.53;30.86;99622.28;5072504;28;20192;-67
2022/07/29 06:13:42;;;;;;;6.70;5.60;;;;;;;36.02;32.39;99615.25;5072006;28;20249;-67
2022/07/29 06:16:09;;;;;;;7.20;6.13;;;;;;;36.14;32.47;99620.66;5070876;28;20184;-68
2022/07/29 06:18:36;;;;;;;5.75;5.28;;;;;;;36.24;32.36;99623.69;5071790;28;20279;-67
2022/07/29 06:21:08;;;;;;;5.72;5.43;;;;;;;36.39;32.28;99613.72;5071118;28;20659;-68
2022/07/29 06:23:35;;;;;;;11.13;6.28;;;;;;;36.52;31.30;99613.22;5061260;28;20188;-67
2022/07/29 06:26:01;;;;;;;9.57;6.43;;;;;;;36.51;31.46;99613.56;5051381;28;20279;-66
2022/07/29 06:28:28;;;;;;;13.48;6.40;;;;;;;36.80;31.55;99611.03;5051726;28;20197;-66
2022/07/29 06:30:56;;;;;;;7.50;6.72;;;;;;;36.97;30.57;99618.06;5051177;28;20193;-67
2022/07/29 06:33:23;;;;;;;7.22;6.60;;;;;;;36.77;31.43;99613.72;5052169;28;20254;-67
2022/07/29 06:35:50;;;;;;;7.53;6.93;;;;;;;36.55;31.81;99611.69;5052222;28;20196;-67
2022/07/29 06:38:16;;;;;;;7.50;6.90;;;;;;;36.25;32.15;99610.66;5052234;28;20626;-67
2022/07/29 06:41:02;;;;;;;7.65;7.00;;;;;;;36.18;31.85;99613.22;5051142;28;20266;-70
2022/07/29 06:43:33;;;;;;;6.82;6.13;;;;;;;36.30;31.60;99610.38;5051868;28;20191;-70
2022/07/29 06:46:04;;;;;;;6.78;6.32;;;;;;;36.52;31.00;99617.94;5050959;28;20642;-66
2022/07/29 06:48:31;;;;;;;7.00;6.43;;;;;;;36.31;31.14;99609.19;5051404;28;20246;-65
2022/07/29 06:50:58;;;;;;;6.28;5.93;;;;;;;36.07;31.74;99599.16;5051019;28;20196;-64
2022/07/29 06:53:25;;;;;;;7.63;7.13;;;;;;;36.23;31.43;99610.19;5052480;28;20254;-64
2022/07/29 06:55:51;;;;;;;7.57;6.70;;;;;;;35.91;32.47;99603.13;5060835;28;20693;-64
2022/07/29 06:58:20;;;;;;;6.95;6.28;;;;;;;35.96;32.14;99602.84;5057023;28;20274;-70
2022/07/29 07:00:47;;;;;;;7.25;6.90;;;;;;;35.99;31.54;99594.63;5050102;28;20269;-68
2022/07/29 07:03:16;;;;;;;6.68;6.28;;;;;;;36.25;32.02;99599.59;5050786;28;20250;-68
2022/07/29 07:05:42;;;;;;;7.65;7.15;;;;;;;36.28;31.26;99604.38;5049905;28;20227;-68
2022/07/29 07:08:10;;;;;;;7.65;6.47;;;;;;;36.39;31.55;99597.09;5051606;28;20221;-71
2022/07/29 07:10:38;;;;;;;6.28;5.88;;;;;;;36.67;30.41;99597.69;5050520;28;20266;-68
2022/07/29 07:13:06;;;;;;;6.38;5.88;;;;;;;36.08;31.05;99588.88;5051591;28;20676;-67
2022/07/29 07:15:32;;;;;;;12.13;6.60;;;;;;;36.15;31.24;99591.81;5051188;28;20204;-67
2022/07/29 07:17:59;;;;;;;7.38;6.50;;;;;;;36.14;31.42;99590.22;5050669;28;20749;-67
2022/07/29 07:20:27;;;;;;;6.22;5.72;;;;;;;36.09;31.20;99584.97;5051560;28;20228;-68
2022/07/29 07:22:54;;;;;;;6.78;6.28;;;;;;;36.30;30.72;99599.28;5051527;28;20189;-69
2022/07/29 07:25:21;;;;;;;5.95;5.55;;;;;;;36.35;31.19;99590.69;5067002;28;20196;-67
2022/07/29 07:27:48;;;;;;;9.68;5.70;;;;;;;36.44;30.51;99599.56;5070493;28;20655;-71
2022/07/29 07:30:15;;;;;;;6.13;5.70;;;;;;;36.72;29.63;99598.22;5071006;28;20207;-68
2022/07/29 07:32:41;;;;;;;6.68;6.00;;;;;;;36.69;30.13;99592.59;5071003;28;20253;-68
2022/07/29 07:35:10;;;;;;;6.70;6.15;;;;;;;36.83;29.48;99593.66;5070406;28;20196;-67
2022/07/29 07:37:40;;;;;;;6.22;5.82;;;;;;;36.91;29.48;99594.63;5069879;28;20743;-69
2022/07/29 07:40:08;;;;;;;6.82;5.88;;;;;;;36.27;31.28;99581.47;5070837;28;20223;-68
2022/07/29 07:42:34;;;;;;;7.15;5.75;;;;;;;36.26;30.30;99581.81;5070428;28;20574;-67
2022/07/29 07:45:01;;;;;;;6.35;5.00;;;;;;;36.50;29.82;99595.38;5070964;28;20193;-65
2022/07/29 07:47:28;;;;;;;5.72;5.20;;;;;;;36.44;29.10;99588.50;5071003;28;20203;-67
2022/07/29 07:49:55;;;;;;;5.93;5.32;;;;;;;36.41;30.05;99583.69;5071292;28;20257;-66
2022/07/29 07:52:22;;;;;;;7.50;4.97;;;;;;;36.59;29.93;99587.63;5070915;28;20192;-66
2022/07/29 07:54:51;;;;;;;8.85;5.50;;;;;;;36.76;28.54;99588.00;5071285;28;20192;-69
2022/07/29 07:57:18;;;;;;;5.88;5.35;;;;;;;36.91;28.45;99583.53;5070429;28;20220;-67
2022/07/29 07:59:44;;;;;;;5.03;4.60;;;;;;;36.89;28.86;99583.09;5069337;28;20711;-65
2022/07/29 08:02:11;;;;;;;5.00;4.55;;;;;;;37.00;29.05;99584.09;5070007;28;20199;-67
2022/07/29 08:04:40;;;;;;;6.32;4.22;;;;;;;37.06;28.25;99577.06;5070294;28;20250;-65
2022/07/29 08:07:08;;;;;;;5.60;4.75;;;;;;;37.19;28.29;99575.72;5070260;28;20253;-68
2022/07/29 08:09:35;;;;;;;6.18;3.92;;;;;;;37.26;26.93;99586.94;5070411;28;20279;-68
2022/07/29 08:12:05;;;;;;;4.05;2.70;;;;;;;37.48;25.58;99577.81;5065752;28;20188;-65
2022/07/29 08:14:33;;;;;;;5.35;3.03;;;;;;;37.24;25.82;99579.00;5069458;28;20187;-66
2022/07/29 08:17:00;;;;;;;13.13;3.33;;;;;;;37.38;24.67;99589.53;5069342;28;20299;-66
2022/07/29 08:19:27;;;;;;;5.07;3.60;;;;;;;37.44;25.17;99576.16;5074583;28;20196;-66
2022/07/29 08:21:54;;;;;;;4.55;3.10;;;;;;;37.58;25.31;99577.19;5074326;28;20202;-66
2022/07/29 08:27:07;;;;;;;3.13;2.90;;;;;;;37.05;25.68;99578.25;5071406;28;20233;-66
2022/07/29 08:29:34;;;;;;;4.22;2.78;;;;;;;36.72;24.63;99575.25;5072800;28;20694;-66
2022/07/29 08:32:00;;;;;;;3.05;2.90;;;;;;;36.20;25.65;99572.16;5071939;28;20664;-69
2022/07/29 08:34:28;;;;;;;3.33;3.03;;;;;;;36.13;25.35;99577.56;5073434;28;20196;-69
2022/07/29 08:36:55;;;;;;;6.63;3.25;;;;;;;35.38;27.10;99551.28;5072812;28;20188;-70
2022/07/29 08:39:22;;;;;;;3.83;3.53;;;;;;;35.57;27.06;99560.47;5072575;28;20253;-69
2022/07/29 08:41:50;;;;;;;3.92;3.38;;;;;;;35.98;26.58;99554.31;5072633;28;20187;-69
2022/07/29 08:44:18;;;;;;;3.53;2.95;;;;;;;36.07;25.16;99557.66;5072074;28;20691;-68
2022/07/29 08:46:45;;;;;;;3.25;3.10;;;;;;;36.39;24.92;99552.81;5073479;28;20664;-65
2022/07/29 08:49:12;;;;;;;3.92;3.20;;;;;;;36.31;25.06;99551.06;5073531;28;20195;-66
2022/07/29 08:51:41;;;;;;;3.70;3.40;;;;;;;36.26;25.43;99554.91;5072853;28;20199;-66
2022/07/29 08:54:10;;;;;;;4.32;3.92;;;;;;;36.19;25.61;99548.41;5074104;28;20277;-66
2022/07/29 08:56:37;;;;;;;3.92;3.55;;;;;;;35.89;26.15;99545.41;5073181;28;20199;-69
2022/07/29 08:59:05;;;;;;;5.95;3.83;;;;;;;36.02;25.72;99549.66;5074024;28;20281;-65
2022/07/29 09:01:36;;;;;;;3.95;3.75;;;;;;;35.61;27.06;99546.72;5073034;28;20225;-67
2022/07/29 09:04:05;;;;;;;3.92;3.33;;;;;;;35.63;26.86;99541.59;5072585;28;20234;-67
2022/07/29 09:06:35;;;;;;;3.83;2.95;;;;;;;35.67;25.99;99548.03;5071522;28;20192;-67
2022/07/29 09:09:02;;;;;;;4.97;3.53;;;;;;;35.31;26.20;99534.56;5072243;28;20226;-68
2022/07/29 09:11:29;;;;;;;3.50;3.20;;;;;;;35.49;26.23;99531.06;5072991;28;20203;-67
2022/07/29 09:13:55;;;;;;;4.28;3.25;;;;;;;35.60;25.09;99536.81;5071766;28;20569;-67
2022/07/29 09:16:22;;;;;;;5.90;3.15;;;;;;;35.43;25.42;99535.22;5071887;28;20195;-70
2022/07/29 09:18:50;;;;;;;3.47;3.28;;;;;;;35.00;25.46;99529.81;5072638;28;20264;-69
2022/07/29 09:24:07;;;;;;;3.67;3.38;;;;;;;34.71;26.68;99523.88;5067623;28;20215;-68
2022/07/29 09:26:37;;;;;;;4.13;2.70;;;;;;;34.88;26.14;99509.75;5052693;28;20279;-67
2022/07/29 09:29:10;;;;;;;3.05;2.85;;;;;;;35.23;25.54;99518.94;5051438;28;20279;-68
2022/07/29 09:31:39;;;;;;;5.28;2.90;;;;;;;35.27;24.84;99522.59;5057968;28;20716;-66
2022/07/29 09:34:08;;;;;;;2.60;2.47;;;;;;;35.13;24.92;99513.94;5062374;28;20192;-67
2022/07/29 09:36:40;;;;;;;3.15;2.38;;;;;;;35.26;24.58;99515.44;5071302;28;20191;-68
2022/07/29 09:39:07;;;;;;;4.45;2.40;;;;;;;35.63;24.96;99508.44;5071795;28;20184;-67
2022/07/29 09:41:46;;;;;;;3.47;2.58;;;;;;;35.60;24.28;99509.19;5071563;28;20223;-66
2022/07/29 09:44:14;;;;;;;3.00;2.67;;;;;;;35.96;24.64;99508.78;5072335;28;20188;-71
2022/07/29 09:46:42;;;;;;;3.03;2.72;;;;;;;36.30;23.25;99510.72;5072134;28;20223;-66
2022/07/29 09:49:12;;;;;;;3.13;2.30;;;;;;;36.46;23.40;99508.69;5072550;28;20198;-66
2022/07/29 09:51:40;;;;;;;2.33;2.22;;;;;;;36.34;23.25;99508.84;5072150;28;20203;-67
2022/07/29 09:54:25;;;;;;;2.50;2.40;;;;;;;36.42;23.76;99518.88;5072103;28;20203;-69
2022/07/29 09:56:52;;;;;;;2.40;2.30;;;;;;;36.36;23.70;99507.31;5071892;28;20239;-68
2022/07/29 09:59:20;;;;;;;2.70;2.53;;;;;;;36.41;23.91;99497.88;5072430;28;20192;-68
2022/07/29 10:01:46;;;;;;;2.90;2.70;;;;;;;36.65;22.77;99501.13;5071483;28;20216;-68
2022/07/29 10:04:15;;;;;;;2.40;2.28;;;;;;;36.21;23.14;99497.09;5071855;28;20253;-68
2022/07/29 10:06:57;;;;;;;2.60;2.50;;;;;;;36.43;22.22;99498.34;5071662;28;20196;-68
2022/07/29 10:09:24;;;;;;;2.88;2.75;;;;;;;36.17;22.63;99498.97;5071762;28;20216;-68
2022/07/29 10:12:05;;;;;;;5.53;2.40;;;;;;;36.27;22.29;99500.38;5071159;28;20195;-67
2022/07/29 10:14:33;;;;;;;4.65;2.78;;;;;;;36.42;22.69;99491.97;5071500;28;20216;-67
2022/07/29 10:17:01;;;;;;;5.50;2.53;;;;;;;36.44;22.99;99497.16;5072441;28;20203;-68
2022/07/29 10:19:30;;;;;;;2.72;2.50;;;;;;;36.59;22.78;99493.50;5071878;28;20287;-71
2022/07/29 10:21:57;;;;;;;2.53;2.33;;;;;;;36.74;22.91;99481.50;5071081;28;20314;-68
2022/07/29 10:24:25;;;;;;;3.05;2.53;;;;;;;36.56;23.23;99489.50;5070738;28;20222;-67
2022/07/29 10:26:53;;;;;;;2.67;2.30;;;;;;;36.80;22.51;99475.31;5071531;28;20633;-67
2022/07/29 10:29:20;;;;;;;2.90;2.78;;;;;;;36.39;22.95;99489.16;5069183;28;20193;-66
2022/07/29 10:31:56;;;;;;;2.60;2.40;;;;;;;35.82;23.34;99478.91;5063313;28;20197;-68
2022/07/29 10:34:36;;;;;;;2.05;1.95;;;;;;;36.00;23.26;99476.47;5049199;28;20270;-67
2022/07/29 10:37:18;;;;;;;2.33;2.20;;;;;;;35.47;24.16;99466.22;5051776;28;20188;-66
2022/07/29 10:39:56;;;;;;;3.50;2.40;;;;;;;35.52;24.01;99475.03;5051367;28;20263;-67
2022/07/29 10:42:25;;;;;;;3.33;2.70;;;;;;;35.30;24.69;99470.19;5071408;28;20562;-68
2022/07/29 10:44:54;;;;;;;4.57;2.00;;;;;;;34.77;25.46;99465.28;5071926;28;20196;-65
2022/07/29 10:47:23;;;;;;;2.50;2.40;;;;;;;35.27;25.02;99445.22;5071296;28;20249;-69
2022/07/29 10:50:02;;;;;;;2.50;2.30;;;;;;;35.61;25.28;99447.19;5070800;28;20579;-69
2022/07/29 10:52:56;;;;;;;2.95;2.70;;;;;;;35.63;25.25;99442.09;5073628;28;20195;-69
2022/07/29 10:55:34;;;;;;;3.60;2.67;;;;;;;35.44;25.44;99433.78;5077598;28;20203;-69
2022/07/29 10:58:14;;;;;;;4.63;2.90;;;;;;;35.58;26.15;99434.09;5075069;28;20219;-69
2022/07/29 11:00:41;;;;;;;2.75;2.30;;;;;;;35.33;25.26;99433.56;5090955;28;20288;-68
2022/07/29 11:03:08;;;;;;;2.53;2.33;;;;;;;35.30;25.95;99436.22;5091012;28;20199;-67
2022/07/29 11:06:03;;;;;;;3.70;2.67;;;;;;;35.23;26.13;99430.53;5085981;28;20655;-68
2022/07/29 11:08:30;;;;;;;3.85;2.78;;;;;;;35.59;26.15;99430.97;5044122;28;20192;-68
2022/07/29 11:11:41;;;;;;;3.95;2.53;;;;;;;35.53;25.53;99415.03;5070243;28;20200;-68
2022/07/29 11:14:08;;;;;;;3.35;3.15;;;;;;;35.68;26.09;99416.94;5071510;28;20231;-68
2022/07/29 11:17:06;;;;;;;3.05;2.85;;;;;;;35.82;26.32;99420.03;5070599;28;20271;-67
2022/07/29 11:19:35;;;;;;;3.03;2.83;;;;;;;35.83;25.81;99424.38;5026552;28;20264;-67
2022/07/29 11:22:04;;;;;;;5.72;2.92;;;;;;;35.48;25.85;99412.56;5063380;28;20226;-67
2022/07/29 11:24:32;;;;;;;3.20;2.90;;;;;;;35.37;26.53;99412.34;5071336;28;20203;-67
2022/07/29 11:27:13;;;;;;;3.05;2.90;;;;;;;35.63;26.16;99411.69;5071402;28;20612;-68
2022/07/29 11:29:48;;;;;;;3.45;2.88;;;;;;;35.74;25.58;99404.41;5071004;28;20644;-71
2022/07/29 11:32:18;;;;;;;3.20;2.83;;;;;;;35.77;26.30;99403.72;5069226;28;20278;-68
2022/07/29 11:34:45;;;;;;;3.25;2.95;;;;;;;35.69;25.95;99394.44;5071874;28;20199;-68
2022/07/29 11:37:24;;;;;;;4.50;3.15;;;;;;;35.43;26.55;99382.47;5069254;28;20725;-68
2022/07/29 11:40:15;;;;;;;3.47;3.10;;;;;;;35.60;26.58;99382.81;5070977;28;20262;-68
2022/07/29 11:42:52;;;;;;;3.53;3.20;;;;;;;35.62;27.05;99383.25;5070922;28;20195;-67
2022/07/29 11:45:28;;;;;;;6.38;3.28;;;;;;;35.64;27.56;99391.97;5071313;28;20180;-68
2022/07/29 11:47:57;;;;;;;3.25;3.00;;;;;;;35.52;27.03;99385.81;5071644;28;20188;-68
2022/07/29 11:50:36;;;;;;;3.75;2.95;;;;;;;35.59;27.08;99386.75;5072798;28;20202;-67
2022/07/29 11:53:12;;;;;;;3.33;3.03;;;;;;;35.70;26.84;99371.19;5075441;28;20245;-67
2022/07/29 11:55:40;;;;;;;3.28;2.70;;;;;;;35.87;26.05;99370.75;5074864;28;20282;-68
2022/07/29 11:58:07;;;;;;;3.30;3.10;;;;;;;35.61;26.52;99364.25;5074736;28;20231;-68
2022/07/29 12:00:37;;;;;;;2.40;2.30;;;;;;;35.36;26.49;99371.25;5074467;28;20195;-66
2022/07/29 12:03:08;;;;;;;2.90;2.67;;;;;;;35.30;26.25;99367.16;5074227;28;20245;-68
2022/07/29 12:05:40;;;;;;;3.03;2.83;;;;;;;35.50;27.03;99366.00;5074526;28;20627;-68
2022/07/29 12:08:12;;;;;;;4.57;3.03;;;;;;;35.27;27.08;99368.66;5074347;28;20233;-68
2022/07/29 12:10:39;;;;;;;3.20;2.90;;;;;;;35.30;27.09;99358.88;5074647;28;20542;-67
2022/07/29 12:13:07;;;;;;;2.63;2.53;;;;;;;35.26;26.73;99366.25;5075264;28;20257;-67
2022/07/29 12:15:34;;;;;;;2.50;2.40;;;;;;;35.12;26.63;99361.22;5074311;28;20192;-68
2022/07/29 12:18:11;;;;;;;2.83;2.70;;;;;;;35.31;26.41;99357.72;5074443;28;20273;-68
2022/07/29 12:20:37;;;;;;;2.92;2.67;;;;;;;35.31;26.63;99352.19;5074215;28;20191;-71
2022/07/29 12:23:07;;;;;;;3.40;2.55;;;;;;;35.43;26.10;99354.81;5073162;28;20740;-69
2022/07/29 12:25:36;;;;;;;2.80;2.58;;;;;;;35.28;26.39;99352.91;5072872;28;20204;-69
2022/07/29 12:28:05;;;;;;;3.92;2.65;;;;;;;35.31;26.47;99357.72;5074946;28;20206;-69
2022/07/29 12:30:38;;;;;;;4.18;2.10;;;;;;;35.27;26.06;99352.06;5073760;28;20253;-66